Terminal Aerodrome Forecast
Issued by NWS Cleveland, OH

Home | Current Version | Previous Version | Text Only | Print | Product List | Glossary On
Versions: 1 2 3 4 5 6 7 8 9 10 11 12 13 14 15 16
000
FTUS41 KCLE 231121
TAFERI
TAF
KERI 231121Z 2312/2412 VRB03KT P6SM SCT250
     FM231700 13007KT P6SM BKN250
     FM240300 16010G20KT P6SM OVC100
     FM240800 19015G25KT P6SM -SHRA OVC035
     FM240900 19015G25KT P6SM -SHRA OVC025=

USA.gov is the U.S. government's official web portal to all federal, state and local government web resources and services.